sensor_id;sensor_type;location;lat;lon;timestamp;temperature;humidity
9730;DHT22;4904;49.152;11.004;2023-07-13T00:00:46;20.00;99.90
9730;DHT22;4904;49.152;11.004;2023-07-13T00:03:13;20.10;99.90
9730;DHT22;4904;49.152;11.004;2023-07-13T00:05:40;20.10;99.90
9730;DHT22;4904;49.152;11.004;2023-07-13T00:08:09;20.10;99.90
9730;DHT22;4904;49.152;11.004;2023-07-13T00:10:39;20.10;99.90
9730;DHT22;4904;49.152;11.004;2023-07-13T00:13:07;20.10;99.90
9730;DHT22;4904;49.152;11.004;2023-07-13T00:15:34;20.10;99.90
9730;DHT22;4904;49.152;11.004;2023-07-13T00:18:01;20.00;99.90
9730;DHT22;4904;49.152;11.004;2023-07-13T00:20:28;20.00;99.90
9730;DHT22;4904;49.152;11.004;2023-07-13T00:22:55;20.10;99.90
9730;DHT22;4904;49.152;11.004;2023-07-13T00:25:23;20.10;99.90
9730;DHT22;4904;49.152;11.004;2023-07-13T00:27:53;20.10;99.90
9730;DHT22;4904;49.152;11.004;2023-07-13T00:30:20;20.10;99.90
9730;DHT22;4904;49.152;11.004;2023-07-13T00:32:47;20.10;99.90
9730;DHT22;4904;49.152;11.004;2023-07-13T00:35:15;20.10;99.90
9730;DHT22;4904;49.152;11.004;2023-07-13T00:37:42;20.10;99.90
9730;DHT22;4904;49.152;11.004;2023-07-13T00:40:10;20.10;99.90
9730;DHT22;4904;49.152;11.004;2023-07-13T00:42:39;20.10;99.90
9730;DHT22;4904;49.152;11.004;2023-07-13T00:48:15;20.20;99.90
9730;DHT22;4904;49.152;11.004;2023-07-13T00:50:45;20.20;99.90
9730;DHT22;4904;49.152;11.004;2023-07-13T00:53:13;20.20;99.90
9730;DHT22;4904;49.152;11.004;2023-07-13T00:55:40;20.20;99.90
9730;DHT22;4904;49.152;11.004;2023-07-13T00:58:09;20.00;99.90
9730;DHT22;4904;49.152;11.004;2023-07-13T01:00:36;19.90;99.90
9730;DHT22;4904;49.152;11.004;2023-07-13T01:03:04;19.80;99.90
9730;DHT22;4904;49.152;11.004;2023-07-13T01:05:33;19.70;99.90
9730;DHT22;4904;49.152;11.004;2023-07-13T01:08:01;19.80;99.90
9730;DHT22;4904;49.152;11.004;2023-07-13T01:10:29;19.70;99.90
9730;DHT22;4904;49.152;11.004;2023-07-13T01:13:04;19.70;99.90
9730;DHT22;4904;49.152;11.004;2023-07-13T01:15:38;19.70;99.90
9730;DHT22;4904;49.152;11.004;2023-07-13T01:18:06;19.60;99.90
9730;DHT22;4904;49.152;11.004;2023-07-13T01:20:33;19.60;99.90
9730;DHT22;4904;49.152;11.004;2023-07-13T01:23:05;19.60;99.90
9730;DHT22;4904;49.152;11.004;2023-07-13T01:25:33;19.60;99.90
9730;DHT22;4904;49.152;11.004;2023-07-13T01:28:01;19.50;99.90
9730;DHT22;4904;49.152;11.004;2023-07-13T01:30:27;19.50;99.90
9730;DHT22;4904;49.152;11.004;2023-07-13T01:32:54;19.50;99.90
9730;DHT22;4904;49.152;11.004;2023-07-13T01:35:21;19.40;99.90
9730;DHT22;4904;49.152;11.004;2023-07-13T01:37:48;19.50;99.90
9730;DHT22;4904;49.152;11.004;2023-07-13T01:40:16;19.50;99.90
9730;DHT22;4904;49.152;11.004;2023-07-13T01:42:43;19.50;99.90
9730;DHT22;4904;49.152;11.004;2023-07-13T01:45:10;19.40;99.90
9730;DHT22;4904;49.152;11.004;2023-07-13T01:47:37;19.40;99.90
9730;DHT22;4904;49.152;11.004;2023-07-13T01:50:04;19.40;99.90
9730;DHT22;4904;49.152;11.004;2023-07-13T01:52:31;19.40;99.90
9730;DHT22;4904;49.152;11.004;2023-07-13T01:54:58;19.50;99.90
9730;DHT22;4904;49.152;11.004;2023-07-13T01:57:26;19.50;99.90
9730;DHT22;4904;49.152;11.004;2023-07-13T01:59:53;19.40;99.90
9730;DHT22;4904;49.152;11.004;2023-07-13T02:02:20;19.40;99.90
9730;DHT22;4904;49.152;11.004;2023-07-13T02:04:46;19.30;99.90
9730;DHT22;4904;49.152;11.004;2023-07-13T02:07:13;19.20;99.90
9730;DHT22;4904;49.152;11.004;2023-07-13T02:09:41;19.00;99.90
9730;DHT22;4904;49.152;11.004;2023-07-13T02:12:09;18.90;99.90
9730;DHT22;4904;49.152;11.004;2023-07-13T02:14:37;18.80;99.90
9730;DHT22;4904;49.152;11.004;2023-07-13T02:17:04;18.80;99.90
9730;DHT22;4904;49.152;11.004;2023-07-13T02:19:31;18.90;99.90
9730;DHT22;4904;49.152;11.004;2023-07-13T02:21:58;18.90;99.90
9730;DHT22;4904;49.152;11.004;2023-07-13T02:24:25;18.80;99.90
9730;DHT22;4904;49.152;11.004;2023-07-13T02:26:52;18.90;99.90
9730;DHT22;4904;49.152;11.004;2023-07-13T02:29:19;18.90;99.90
9730;DHT22;4904;49.152;11.004;2023-07-13T02:31:47;18.90;99.90
9730;DHT22;4904;49.152;11.004;2023-07-13T02:34:14;18.80;99.90
9730;DHT22;4904;49.152;11.004;2023-07-13T02:36:41;18.80;99.90
9730;DHT22;4904;49.152;11.004;2023-07-13T02:39:09;18.80;99.90
9730;DHT22;4904;49.152;11.004;2023-07-13T02:41:38;18.70;99.90
9730;DHT22;4904;49.152;11.004;2023-07-13T02:44:05;18.80;99.90
9730;DHT22;4904;49.152;11.004;2023-07-13T02:46:34;18.70;99.90
9730;DHT22;4904;49.152;11.004;2023-07-13T02:49:03;18.70;99.90
9730;DHT22;4904;49.152;11.004;2023-07-13T02:51:30;18.60;99.90
9730;DHT22;4904;49.152;11.004;2023-07-13T02:53:59;18.50;99.90
9730;DHT22;4904;49.152;11.004;2023-07-13T02:56:27;18.40;99.90
9730;DHT22;4904;49.152;11.004;2023-07-13T02:58:54;18.40;99.90
9730;DHT22;4904;49.152;11.004;2023-07-13T03:01:21;18.50;99.90
9730;DHT22;4904;49.152;11.004;2023-07-13T03:03:49;18.30;99.90
9730;DHT22;4904;49.152;11.004;2023-07-13T03:06:18;18.40;99.90
9730;DHT22;4904;49.152;11.004;2023-07-13T03:08:45;18.30;99.90
9730;DHT22;4904;49.152;11.004;2023-07-13T03:11:14;18.40;99.90
9730;DHT22;4904;49.152;11.004;2023-07-13T03:13:42;18.30;99.90
9730;DHT22;4904;49.152;11.004;2023-07-13T03:16:10;18.30;99.90
9730;DHT22;4904;49.152;11.004;2023-07-13T03:18:37;18.20;99.90
9730;DHT22;4904;49.152;11.004;2023-07-13T03:21:05;18.10;99.90
9730;DHT22;4904;49.152;11.004;2023-07-13T03:23:34;18.10;99.90
9730;DHT22;4904;49.152;11.004;2023-07-13T03:26:02;18.10;99.90
9730;DHT22;4904;49.152;11.004;2023-07-13T03:28:29;18.10;99.90
9730;DHT22;4904;49.152;11.004;2023-07-13T03:31:01;17.80;99.90
9730;DHT22;4904;49.152;11.004;2023-07-13T03:33:28;17.70;99.90
9730;DHT22;4904;49.152;11.004;2023-07-13T03:35:55;17.60;99.90
9730;DHT22;4904;49.152;11.004;2023-07-13T03:38:22;17.60;99.90
9730;DHT22;4904;49.152;11.004;2023-07-13T03:40:50;17.60;99.90
9730;DHT22;4904;49.152;11.004;2023-07-13T03:43:17;17.60;99.90
9730;DHT22;4904;49.152;11.004;2023-07-13T03:45:44;17.60;99.90
9730;DHT22;4904;49.152;11.004;2023-07-13T03:48:10;17.70;99.90
9730;DHT22;4904;49.152;11.004;2023-07-13T03:50:37;17.50;99.90
9730;DHT22;4904;49.152;11.004;2023-07-13T03:53:04;17.70;99.90
9730;DHT22;4904;49.152;11.004;2023-07-13T03:55:31;17.90;99.90
9730;DHT22;4904;49.152;11.004;2023-07-13T03:58:22;17.80;99.90
9730;DHT22;4904;49.152;11.004;2023-07-13T04:00:47;17.70;99.90
9730;DHT22;4904;49.152;11.004;2023-07-13T04:03:14;17.70;99.90
9730;DHT22;4904;49.152;11.004;2023-07-13T04:05:42;17.70;99.90
9730;DHT22;4904;49.152;11.004;2023-07-13T04:08:08;17.60;99.90
9730;DHT22;4904;49.152;11.004;2023-07-13T04:10:35;17.50;99.90
9730;DHT22;4904;49.152;11.004;2023-07-13T04:13:03;17.50;99.90
9730;DHT22;4904;49.152;11.004;2023-07-13T04:15:31;17.40;99.90
9730;DHT22;4904;49.152;11.004;2023-07-13T04:17:58;17.40;99.90
9730;DHT22;4904;49.152;11.004;2023-07-13T04:20:25;17.40;99.90
9730;DHT22;4904;49.152;11.004;2023-07-13T04:22:53;17.40;99.90
9730;DHT22;4904;49.152;11.004;2023-07-13T04:25:20;17.30;99.90
9730;DHT22;4904;49.152;11.004;2023-07-13T04:27:49;17.30;99.90
9730;DHT22;4904;49.152;11.004;2023-07-13T04:30:17;17.10;99.90
9730;DHT22;4904;49.152;11.004;2023-07-13T04:32:44;17.00;99.90
9730;DHT22;4904;49.152;11.004;2023-07-13T04:35:11;17.00;99.90
9730;DHT22;4904;49.152;11.004;2023-07-13T04:37:39;17.00;99.90
9730;DHT22;4904;49.152;11.004;2023-07-13T04:40:07;17.00;99.90
9730;DHT22;4904;49.152;11.004;2023-07-13T04:42:37;17.10;99.90
9730;DHT22;4904;49.152;11.004;2023-07-13T04:45:05;17.10;99.90
9730;DHT22;4904;49.152;11.004;2023-07-13T04:47:34;17.10;99.90
9730;DHT22;4904;49.152;11.004;2023-07-13T04:50:01;17.10;99.90
9730;DHT22;4904;49.152;11.004;2023-07-13T04:52:28;17.20;99.90
9730;DHT22;4904;49.152;11.004;2023-07-13T04:54:55;17.20;99.90
9730;DHT22;4904;49.152;11.004;2023-07-13T04:57:22;17.30;99.90
9730;DHT22;4904;49.152;11.004;2023-07-13T04:59:50;17.30;99.90
9730;DHT22;4904;49.152;11.004;2023-07-13T05:02:17;17.40;99.90
9730;DHT22;4904;49.152;11.004;2023-07-13T05:04:47;17.30;99.90
9730;DHT22;4904;49.152;11.004;2023-07-13T05:07:14;17.40;99.90
9730;DHT22;4904;49.152;11.004;2023-07-13T05:09:42;17.40;99.90
9730;DHT22;4904;49.152;11.004;2023-07-13T05:12:09;17.50;99.90
9730;DHT22;4904;49.152;11.004;2023-07-13T05:14:36;17.50;99.90
9730;DHT22;4904;49.152;11.004;2023-07-13T05:17:04;17.50;99.90
9730;DHT22;4904;49.152;11.004;2023-07-13T05:19:31;17.50;99.90
9730;DHT22;4904;49.152;11.004;2023-07-13T05:21:59;17.50;99.90
9730;DHT22;4904;49.152;11.004;2023-07-13T05:24:28;17.50;99.90
9730;DHT22;4904;49.152;11.004;2023-07-13T05:26:54;17.60;99.90
9730;DHT22;4904;49.152;11.004;2023-07-13T05:29:22;17.70;99.90
9730;DHT22;4904;49.152;11.004;2023-07-13T05:31:49;17.70;99.90
9730;DHT22;4904;49.152;11.004;2023-07-13T05:34:17;17.60;99.90
9730;DHT22;4904;49.152;11.004;2023-07-13T05:36:44;17.80;99.90
9730;DHT22;4904;49.152;11.004;2023-07-13T05:39:12;17.80;99.90
9730;DHT22;4904;49.152;11.004;2023-07-13T05:41:39;17.80;99.90
9730;DHT22;4904;49.152;11.004;2023-07-13T05:44:06;18.00;99.90
9730;DHT22;4904;49.152;11.004;2023-07-13T05:46:33;17.90;99.90
9730;DHT22;4904;49.152;11.004;2023-07-13T05:49:00;18.00;99.90
9730;DHT22;4904;49.152;11.004;2023-07-13T05:51:28;17.90;99.90
9730;DHT22;4904;49.152;11.004;2023-07-13T05:53:55;17.90;99.90
9730;DHT22;4904;49.152;11.004;2023-07-13T05:56:23;17.90;99.90
9730;DHT22;4904;49.152;11.004;2023-07-13T05:58:52;18.00;99.90
9730;DHT22;4904;49.152;11.004;2023-07-13T06:01:19;18.10;99.90
9730;DHT22;4904;49.152;11.004;2023-07-13T06:03:48;18.20;99.90
9730;DHT22;4904;49.152;11.004;2023-07-13T06:06:15;18.40;99.90
9730;DHT22;4904;49.152;11.004;2023-07-13T06:08:42;18.50;99.90
9730;DHT22;4904;49.152;11.004;2023-07-13T06:11:13;18.70;99.90
9730;DHT22;4904;49.152;11.004;2023-07-13T06:13:42;18.70;99.90
9730;DHT22;4904;49.152;11.004;2023-07-13T06:16:09;18.60;99.90
9730;DHT22;4904;49.152;11.004;2023-07-13T06:18:37;18.50;99.90
9730;DHT22;4904;49.152;11.004;2023-07-13T06:21:08;18.60;99.90
9730;DHT22;4904;49.152;11.004;2023-07-13T06:23:35;18.70;99.90
9730;DHT22;4904;49.152;11.004;2023-07-13T06:26:03;18.80;99.90
9730;DHT22;4904;49.152;11.004;2023-07-13T06:28:31;18.70;99.90
9730;DHT22;4904;49.152;11.004;2023-07-13T06:30:59;18.80;99.90
9730;DHT22;4904;49.152;11.004;2023-07-13T06:33:27;18.90;99.90
9730;DHT22;4904;49.152;11.004;2023-07-13T06:35:54;18.80;99.90
9730;DHT22;4904;49.152;11.004;2023-07-13T06:38:21;18.80;99.90
9730;DHT22;4904;49.152;11.004;2023-07-13T06:40:48;18.90;99.90
9730;DHT22;4904;49.152;11.004;2023-07-13T06:43:15;19.00;99.90
9730;DHT22;4904;49.152;11.004;2023-07-13T06:45:44;19.00;99.90
9730;DHT22;4904;49.152;11.004;2023-07-13T06:48:14;19.00;99.90
9730;DHT22;4904;49.152;11.004;2023-07-13T06:50:41;19.00;99.90
9730;DHT22;4904;49.152;11.004;2023-07-13T06:53:08;19.10;99.90
9730;DHT22;4904;49.152;11.004;2023-07-13T06:55:35;19.10;99.90
9730;DHT22;4904;49.152;11.004;2023-07-13T06:58:02;18.90;99.90
9730;DHT22;4904;49.152;11.004;2023-07-13T07:00:29;18.90;99.90
9730;DHT22;4904;49.152;11.004;2023-07-13T07:02:56;19.00;99.90
9730;DHT22;4904;49.152;11.004;2023-07-13T07:05:24;19.00;99.90
9730;DHT22;4904;49.152;11.004;2023-07-13T07:07:53;18.90;99.90
9730;DHT22;4904;49.152;11.004;2023-07-13T07:10:21;18.90;99.90
9730;DHT22;4904;49.152;11.004;2023-07-13T07:12:48;18.90;99.90
9730;DHT22;4904;49.152;11.004;2023-07-13T07:15:15;18.90;99.90
9730;DHT22;4904;49.152;11.004;2023-07-13T07:17:41;19.00;99.90
9730;DHT22;4904;49.152;11.004;2023-07-13T07:20:10;19.10;99.90
9730;DHT22;4904;49.152;11.004;2023-07-13T07:22:38;19.20;99.90
9730;DHT22;4904;49.152;11.004;2023-07-13T07:25:06;19.30;99.90
9730;DHT22;4904;49.152;11.004;2023-07-13T07:27:32;19.30;99.90
9730;DHT22;4904;49.152;11.004;2023-07-13T07:30:00;19.40;99.90
9730;DHT22;4904;49.152;11.004;2023-07-13T07:32:29;19.40;99.90
9730;DHT22;4904;49.152;11.004;2023-07-13T07:34:56;19.40;99.90
9730;DHT22;4904;49.152;11.004;2023-07-13T07:37:23;19.50;99.90
9730;DHT22;4904;49.152;11.004;2023-07-13T07:39:51;19.40;99.90
9730;DHT22;4904;49.152;11.004;2023-07-13T07:42:18;19.30;99.90
9730;DHT22;4904;49.152;11.004;2023-07-13T07:44:46;19.50;99.90
9730;DHT22;4904;49.152;11.004;2023-07-13T07:47:13;19.60;99.90
9730;DHT22;4904;49.152;11.004;2023-07-13T07:49:40;19.80;99.90
9730;DHT22;4904;49.152;11.004;2023-07-13T07:52:08;20.00;99.90
9730;DHT22;4904;49.152;11.004;2023-07-13T07:54:35;20.00;99.90
9730;DHT22;4904;49.152;11.004;2023-07-13T07:57:04;20.10;99.90
9730;DHT22;4904;49.152;11.004;2023-07-13T07:59:31;20.00;99.90
9730;DHT22;4904;49.152;11.004;2023-07-13T08:01:58;20.00;99.90
9730;DHT22;4904;49.152;11.004;2023-07-13T08:04:24;20.00;99.90
9730;DHT22;4904;49.152;11.004;2023-07-13T08:06:51;20.20;99.90
9730;DHT22;4904;49.152;11.004;2023-07-13T08:09:18;20.10;99.90
9730;DHT22;4904;49.152;11.004;2023-07-13T08:11:45;20.20;99.90
9730;DHT22;4904;49.152;11.004;2023-07-13T08:14:14;20.20;99.90
9730;DHT22;4904;49.152;11.004;2023-07-13T08:16:42;20.20;99.90
9730;DHT22;4904;49.152;11.004;2023-07-13T08:19:09;20.30;99.90
9730;DHT22;4904;49.152;11.004;2023-07-13T08:21:36;20.30;99.90
9730;DHT22;4904;49.152;11.004;2023-07-13T08:24:04;20.40;99.90
9730;DHT22;4904;49.152;11.004;2023-07-13T08:26:31;20.30;99.90
9730;DHT22;4904;49.152;11.004;2023-07-13T08:28:58;20.40;99.90
9730;DHT22;4904;49.152;11.004;2023-07-13T08:31:26;20.40;99.90
9730;DHT22;4904;49.152;11.004;2023-07-13T08:33:53;20.50;99.90
9730;DHT22;4904;49.152;11.004;2023-07-13T08:36:20;20.50;99.90
9730;DHT22;4904;49.152;11.004;2023-07-13T08:38:47;20.50;99.90
9730;DHT22;4904;49.152;11.004;2023-07-13T08:41:16;20.80;99.90
9730;DHT22;4904;49.152;11.004;2023-07-13T08:43:46;20.80;99.90
9730;DHT22;4904;49.152;11.004;2023-07-13T08:46:17;20.80;99.90
9730;DHT22;4904;49.152;11.004;2023-07-13T08:48:50;20.90;99.90
9730;DHT22;4904;49.152;11.004;2023-07-13T08:51:36;21.00;99.90
9730;DHT22;4904;49.152;11.004;2023-07-13T08:54:12;21.00;99.90
9730;DHT22;4904;49.152;11.004;2023-07-13T08:56:43;21.10;99.90
9730;DHT22;4904;49.152;11.004;2023-07-13T08:59:15;21.20;99.90
9730;DHT22;4904;49.152;11.004;2023-07-13T09:01:54;21.20;99.90
9730;DHT22;4904;49.152;11.004;2023-07-13T09:04:29;21.30;99.90
9730;DHT22;4904;49.152;11.004;2023-07-13T09:07:05;21.40;99.90
9730;DHT22;4904;49.152;11.004;2023-07-13T09:09:50;21.60;99.90
9730;DHT22;4904;49.152;11.004;2023-07-13T09:12:25;21.60;99.90
9730;DHT22;4904;49.152;11.004;2023-07-13T09:14:56;21.40;99.90
9730;DHT22;4904;49.152;11.004;2023-07-13T09:17:27;21.40;99.90
9730;DHT22;4904;49.152;11.004;2023-07-13T09:19:59;21.60;99.90
9730;DHT22;4904;49.152;11.004;2023-07-13T09:22:28;21.90;99.90
9730;DHT22;4904;49.152;11.004;2023-07-13T09:25:02;22.00;99.90
9730;DHT22;4904;49.152;11.004;2023-07-13T09:27:35;21.70;99.90
9730;DHT22;4904;49.152;11.004;2023-07-13T09:30:17;21.70;99.90
9730;DHT22;4904;49.152;11.004;2023-07-13T09:32:51;21.50;99.90
9730;DHT22;4904;49.152;11.004;2023-07-13T09:35:24;21.30;99.90
9730;DHT22;4904;49.152;11.004;2023-07-13T09:37:57;21.50;99.90
9730;DHT22;4904;49.152;11.004;2023-07-13T09:40:43;21.50;99.90
9730;DHT22;4904;49.152;11.004;2023-07-13T09:43:14;21.50;99.90
9730;DHT22;4904;49.152;11.004;2023-07-13T09:45:45;21.70;99.90
9730;DHT22;4904;49.152;11.004;2023-07-13T09:48:14;21.80;99.90
9730;DHT22;4904;49.152;11.004;2023-07-13T09:50:44;22.00;99.90
9730;DHT22;4904;49.152;11.004;2023-07-13T09:53:12;21.90;99.90
9730;DHT22;4904;49.152;11.004;2023-07-13T09:55:40;21.80;99.90
9730;DHT22;4904;49.152;11.004;2023-07-13T09:58:11;21.90;99.90
9730;DHT22;4904;49.152;11.004;2023-07-13T10:00:39;21.90;99.90
9730;DHT22;4904;49.152;11.004;2023-07-13T10:03:16;21.90;99.90
9730;DHT22;4904;49.152;11.004;2023-07-13T10:05:47;22.20;99.90
9730;DHT22;4904;49.152;11.004;2023-07-13T10:08:18;22.20;99.90
9730;DHT22;4904;49.152;11.004;2023-07-13T10:10:45;22.20;99.90
9730;DHT22;4904;49.152;11.004;2023-07-13T10:13:29;22.20;99.90
9730;DHT22;4904;49.152;11.004;2023-07-13T10:15:57;22.50;99.90
9730;DHT22;4904;49.152;11.004;2023-07-13T10:18:25;22.60;99.90
9730;DHT22;4904;49.152;11.004;2023-07-13T10:21:00;22.70;99.90
9730;DHT22;4904;49.152;11.004;2023-07-13T10:23:36;22.60;99.90
9730;DHT22;4904;49.152;11.004;2023-07-13T10:26:05;22.30;99.90
9730;DHT22;4904;49.152;11.004;2023-07-13T10:28:37;22.40;99.90
9730;DHT22;4904;49.152;11.004;2023-07-13T10:31:10;22.60;99.90
9730;DHT22;4904;49.152;11.004;2023-07-13T10:33:38;22.50;99.90
9730;DHT22;4904;49.152;11.004;2023-07-13T10:36:28;22.70;99.90
9730;DHT22;4904;49.152;11.004;2023-07-13T10:38:58;22.70;99.90
9730;DHT22;4904;49.152;11.004;2023-07-13T10:41:26;22.80;99.90
9730;DHT22;4904;49.152;11.004;2023-07-13T10:43:55;22.80;99.90
9730;DHT22;4904;49.152;11.004;2023-07-13T10:46:26;22.70;99.90
9730;DHT22;4904;49.152;11.004;2023-07-13T10:48:58;23.10;99.90
9730;DHT22;4904;49.152;11.004;2023-07-13T10:51:28;23.10;99.90
9730;DHT22;4904;49.152;11.004;2023-07-13T10:54:17;23.10;99.90
9730;DHT22;4904;49.152;11.004;2023-07-13T10:56:45;23.00;99.90
9730;DHT22;4904;49.152;11.004;2023-07-13T10:59:15;22.70;99.90
9730;DHT22;4904;49.152;11.004;2023-07-13T11:01:53;22.70;99.90
9730;DHT22;4904;49.152;11.004;2023-07-13T11:04:22;22.60;99.90
9730;DHT22;4904;49.152;11.004;2023-07-13T11:06:56;22.70;99.90
9730;DHT22;4904;49.152;11.004;2023-07-13T11:09:39;22.80;99.90
9730;DHT22;4904;49.152;11.004;2023-07-13T11:12:09;23.10;99.90
9730;DHT22;4904;49.152;11.004;2023-07-13T11:14:43;22.90;99.90
9730;DHT22;4904;49.152;11.004;2023-07-13T11:20:37;23.10;99.90
9730;DHT22;4904;49.152;11.004;2023-07-13T11:23:26;23.40;99.90
9730;DHT22;4904;49.152;11.004;2023-07-13T11:25:54;23.60;99.90
9730;DHT22;4904;49.152;11.004;2023-07-13T11:28:23;23.50;99.90
9730;DHT22;4904;49.152;11.004;2023-07-13T11:31:14;23.60;99.90
9730;DHT22;4904;49.152;11.004;2023-07-13T11:33:56;23.50;99.90
9730;DHT22;4904;49.152;11.004;2023-07-13T11:36:30;23.20;99.90
9730;DHT22;4904;49.152;11.004;2023-07-13T11:39:04;23.50;99.90
9730;DHT22;4904;49.152;11.004;2023-07-13T11:41:43;23.50;99.90
9730;DHT22;4904;49.152;11.004;2023-07-13T11:44:13;23.30;99.90
9730;DHT22;4904;49.152;11.004;2023-07-13T11:46:45;23.20;99.90
9730;DHT22;4904;49.152;11.004;2023-07-13T11:49:16;23.40;99.90
9730;DHT22;4904;49.152;11.004;2023-07-13T11:51:44;23.50;99.90
9730;DHT22;4904;49.152;11.004;2023-07-13T11:54:21;23.20;99.90
9730;DHT22;4904;49.152;11.004;2023-07-13T11:56:49;23.30;99.90
9730;DHT22;4904;49.152;11.004;2023-07-13T11:59:16;23.40;99.90
9730;DHT22;4904;49.152;11.004;2023-07-13T12:01:47;23.40;99.90
9730;DHT22;4904;49.152;11.004;2023-07-13T12:04:22;23.40;99.90
9730;DHT22;4904;49.152;11.004;2023-07-13T12:06:55;23.20;99.90
9730;DHT22;4904;49.152;11.004;2023-07-13T12:09:27;23.20;99.90
9730;DHT22;4904;49.152;11.004;2023-07-13T12:11:56;23.20;99.90
9730;DHT22;4904;49.152;11.004;2023-07-13T12:14:24;23.60;99.90
9730;DHT22;4904;49.152;11.004;2023-07-13T12:16:52;23.60;99.90
9730;DHT22;4904;49.152;11.004;2023-07-13T12:19:22;23.70;99.90
9730;DHT22;4904;49.152;11.004;2023-07-13T12:21:50;23.80;99.90
9730;DHT22;4904;49.152;11.004;2023-07-13T12:24:19;23.90;99.90
9730;DHT22;4904;49.152;11.004;2023-07-13T12:26:52;24.10;99.90
9730;DHT22;4904;49.152;11.004;2023-07-13T12:29:20;24.00;99.90
9730;DHT22;4904;49.152;11.004;2023-07-13T12:31:48;23.90;99.90
9730;DHT22;4904;49.152;11.004;2023-07-13T12:34:19;24.00;99.90
9730;DHT22;4904;49.152;11.004;2023-07-13T12:36:49;24.10;99.90
9730;DHT22;4904;49.152;11.004;2023-07-13T12:39:18;24.00;99.90
9730;DHT22;4904;49.152;11.004;2023-07-13T12:41:47;24.10;99.90
9730;DHT22;4904;49.152;11.004;2023-07-13T12:44:18;24.10;99.90
9730;DHT22;4904;49.152;11.004;2023-07-13T12:46:58;24.00;99.90
9730;DHT22;4904;49.152;11.004;2023-07-13T12:49:30;24.20;99.90
9730;DHT22;4904;49.152;11.004;2023-07-13T12:52:02;24.20;99.90
9730;DHT22;4904;49.152;11.004;2023-07-13T12:54:30;23.90;99.90
9730;DHT22;4904;49.152;11.004;2023-07-13T12:56:59;23.90;99.90
9730;DHT22;4904;49.152;11.004;2023-07-13T12:59:32;24.00;99.90
9730;DHT22;4904;49.152;11.004;2023-07-13T13:02:19;24.20;99.90
9730;DHT22;4904;49.152;11.004;2023-07-13T13:04:48;24.00;99.90
9730;DHT22;4904;49.152;11.004;2023-07-13T13:07:15;24.00;99.90
9730;DHT22;4904;49.152;11.004;2023-07-13T13:09:45;24.10;99.90
9730;DHT22;4904;49.152;11.004;2023-07-13T13:12:13;24.00;99.90
9730;DHT22;4904;49.152;11.004;2023-07-13T13:14:43;24.00;99.90
9730;DHT22;4904;49.152;11.004;2023-07-13T13:17:20;24.40;99.90
9730;DHT22;4904;49.152;11.004;2023-07-13T13:19:49;24.60;99.90
9730;DHT22;4904;49.152;11.004;2023-07-13T13:22:18;24.20;99.90
9730;DHT22;4904;49.152;11.004;2023-07-13T13:24:45;24.20;99.90
9730;DHT22;4904;49.152;11.004;2023-07-13T13:27:15;24.30;99.90
9730;DHT22;4904;49.152;11.004;2023-07-13T13:29:45;24.20;99.90
9730;DHT22;4904;49.152;11.004;2023-07-13T13:32:14;24.10;99.90
9730;DHT22;4904;49.152;11.004;2023-07-13T13:34:41;24.40;99.90
9730;DHT22;4904;49.152;11.004;2023-07-13T13:37:18;24.40;99.90
9730;DHT22;4904;49.152;11.004;2023-07-13T13:39:45;24.30;99.90
9730;DHT22;4904;49.152;11.004;2023-07-13T13:42:12;24.60;99.90
9730;DHT22;4904;49.152;11.004;2023-07-13T13:44:40;24.70;99.90
9730;DHT22;4904;49.152;11.004;2023-07-13T13:47:21;24.90;99.90
9730;DHT22;4904;49.152;11.004;2023-07-13T13:49:49;24.40;99.90
9730;DHT22;4904;49.152;11.004;2023-07-13T13:52:16;24.20;99.90
9730;DHT22;4904;49.152;11.004;2023-07-13T13:54:44;24.30;99.90
9730;DHT22;4904;49.152;11.004;2023-07-13T13:57:11;24.60;99.90
9730;DHT22;4904;49.152;11.004;2023-07-13T13:59:38;24.60;99.90
9730;DHT22;4904;49.152;11.004;2023-07-13T14:02:21;24.60;99.90
9730;DHT22;4904;49.152;11.004;2023-07-13T14:07:17;24.10;99.90
9730;DHT22;4904;49.152;11.004;2023-07-13T14:09:43;23.70;99.90
9730;DHT22;4904;49.152;11.004;2023-07-13T14:12:10;23.80;99.90
9730;DHT22;4904;49.152;11.004;2023-07-13T14:14:38;24.00;99.90
9730;DHT22;4904;49.152;11.004;2023-07-13T14:17:18;24.10;99.90
9730;DHT22;4904;49.152;11.004;2023-07-13T14:19:47;24.10;99.90
9730;DHT22;4904;49.152;11.004;2023-07-13T14:22:16;24.00;99.90
9730;DHT22;4904;49.152;11.004;2023-07-13T14:24:43;24.00;99.90
9730;DHT22;4904;49.152;11.004;2023-07-13T14:27:11;24.20;99.90
9730;DHT22;4904;49.152;11.004;2023-07-13T14:29:38;24.40;99.90
9730;DHT22;4904;49.152;11.004;2023-07-13T14:32:10;24.30;99.90
9730;DHT22;4904;49.152;11.004;2023-07-13T14:34:38;24.40;99.90
9730;DHT22;4904;49.152;11.004;2023-07-13T14:37:05;24.70;99.90
9730;DHT22;4904;49.152;11.004;2023-07-13T14:39:38;24.90;99.90
9730;DHT22;4904;49.152;11.004;2023-07-13T14:42:05;24.90;99.90
9730;DHT22;4904;49.152;11.004;2023-07-13T14:44:32;24.60;99.90
9730;DHT22;4904;49.152;11.004;2023-07-13T14:47:03;24.40;99.90
9730;DHT22;4904;49.152;11.004;2023-07-13T14:49:32;24.50;99.90
9730;DHT22;4904;49.152;11.004;2023-07-13T14:52:03;24.60;99.90
9730;DHT22;4904;49.152;11.004;2023-07-13T14:54:32;24.80;99.90
9730;DHT22;4904;49.152;11.004;2023-07-13T14:56:59;24.70;99.90
9730;DHT22;4904;49.152;11.004;2023-07-13T14:59:26;25.00;99.90
9730;DHT22;4904;49.152;11.004;2023-07-13T15:01:53;25.00;99.90
9730;DHT22;4904;49.152;11.004;2023-07-13T15:04:20;24.80;99.90
9730;DHT22;4904;49.152;11.004;2023-07-13T15:06:56;24.60;99.90
9730;DHT22;4904;49.152;11.004;2023-07-13T15:09:26;24.80;99.90
9730;DHT22;4904;49.152;11.004;2023-07-13T15:11:55;25.10;99.90
9730;DHT22;4904;49.152;11.004;2023-07-13T15:14:22;25.00;99.90
9730;DHT22;4904;49.152;11.004;2023-07-13T15:16:53;25.10;99.90
9730;DHT22;4904;49.152;11.004;2023-07-13T15:19:21;25.00;99.90
9730;DHT22;4904;49.152;11.004;2023-07-13T15:21:49;24.70;99.90
9730;DHT22;4904;49.152;11.004;2023-07-13T15:24:17;24.50;99.90
9730;DHT22;4904;49.152;11.004;2023-07-13T15:26:45;24.50;99.90
9730;DHT22;4904;49.152;11.004;2023-07-13T15:29:16;24.20;99.90
9730;DHT22;4904;49.152;11.004;2023-07-13T15:31:43;24.40;99.90
9730;DHT22;4904;49.152;11.004;2023-07-13T15:34:12;24.60;99.90
9730;DHT22;4904;49.152;11.004;2023-07-13T15:36:39;25.00;99.90
9730;DHT22;4904;49.152;11.004;2023-07-13T15:39:08;25.40;99.90
9730;DHT22;4904;49.152;11.004;2023-07-13T15:41:37;25.50;99.90
9730;DHT22;4904;49.152;11.004;2023-07-13T15:44:23;25.20;99.90
9730;DHT22;4904;49.152;11.004;2023-07-13T15:46:51;24.70;99.90
9730;DHT22;4904;49.152;11.004;2023-07-13T15:49:18;25.10;99.90
9730;DHT22;4904;49.152;11.004;2023-07-13T15:51:46;25.30;99.90
9730;DHT22;4904;49.152;11.004;2023-07-13T15:54:16;25.40;99.90
9730;DHT22;4904;49.152;11.004;2023-07-13T15:56:48;25.80;99.90
9730;DHT22;4904;49.152;11.004;2023-07-13T15:59:18;26.00;99.90
9730;DHT22;4904;49.152;11.004;2023-07-13T16:01:45;26.20;99.90
9730;DHT22;4904;49.152;11.004;2023-07-13T16:04:14;26.40;99.90
9730;DHT22;4904;49.152;11.004;2023-07-13T16:06:41;26.40;99.90